Time;durP1;ratioP1;P1;durP2;ratioP2;P2;SDS_P1;SDS_P2;PMS_P1;PMS_P2;Temp;Humidity;BMP_temperature;BMP_pressure;BME280_temperature;BME280_humidity;BME280_pressure;Samples;Min_cycle;Max_cycle;Signal;HPM_P1;HPM_P2
2021/06/21 00:00:54;;;;;;;8.07;7.28;;;29.40;43.90;;;;;;5115349;28;20429;-70
2021/06/21 00:03:20;;;;;;;10.40;8.48;;;29.30;44.00;;;;;;5115188;28;20317;-70
2021/06/21 00:05:46;;;;;;;8.88;7.97;;;29.30;44.20;;;;;;5113618;27;20020;-70
2021/06/21 00:08:12;;;;;;;9.30;8.32;;;29.30;44.30;;;;;;5115261;28;20016;-70
2021/06/21 00:10:38;;;;;;;8.77;7.88;;;29.20;44.40;;;;;;5115097;28;20477;-70
2021/06/21 00:13:04;;;;;;;9.90;7.88;;;29.20;44.40;;;;;;5115107;28;20030;-70
2021/06/21 00:15:30;;;;;;;9.00;8.02;;;29.10;44.60;;;;;;5115077;28;20102;-71
2021/06/21 00:17:56;;;;;;;9.18;7.88;;;29.10;44.70;;;;;;5115151;28;20387;-71
2021/06/21 00:20:22;;;;;;;11.60;8.15;;;29.00;44.70;;;;;;5115022;28;20099;-71
2021/06/21 00:22:49;;;;;;;8.57;7.78;;;29.00;44.90;;;;;;5115012;28;20035;-70
2021/06/21 00:25:16;;;;;;;11.10;7.82;;;29.00;45.00;;;;;;5113800;28;20054;-71
2021/06/21 00:27:42;;;;;;;9.05;7.85;;;28.90;45.10;;;;;;5114945;28;20427;-71
2021/06/21 00:30:11;;;;;;;10.35;8.35;;;28.90;45.20;;;;;;5114833;28;20076;-70
2021/06/21 00:32:40;;;;;;;10.40;8.43;;;28.90;45.70;;;;;;5113738;28;20416;-70
2021/06/21 00:35:07;;;;;;;8.73;7.70;;;28.80;45.50;;;;;;5111822;28;20035;-70
2021/06/21 00:37:34;;;;;;;10.05;8.52;;;28.80;45.50;;;;;;5114655;28;20111;-71
2021/06/21 00:40:00;;;;;;;10.13;8.70;;;28.70;45.80;;;;;;5114634;28;20039;-70
2021/06/21 00:42:26;;;;;;;10.15;8.82;;;28.70;45.80;;;;;;5113196;28;20027;-71
2021/06/21 00:44:52;;;;;;;10.45;8.82;;;28.60;45.80;;;;;;5114449;28;20034;-71
2021/06/21 00:47:18;;;;;;;11.73;8.75;;;28.50;46.00;;;;;;5114428;28;20019;-70
2021/06/21 00:49:44;;;;;;;11.00;8.32;;;28.50;46.00;;;;;;5114437;28;20020;-70
2021/06/21 00:52:16;;;;;;;10.13;8.10;;;28.40;46.10;;;;;;5114241;28;20369;-71
2021/06/21 00:54:43;;;;;;;9.57;8.57;;;28.40;46.30;;;;;;5114438;28;20034;-70
2021/06/21 00:57:09;;;;;;;9.82;8.10;;;28.40;46.50;;;;;;5114337;28;20096;-70
2021/06/21 00:59:35;;;;;;;9.27;8.32;;;28.30;46.50;;;;;;5113232;28;20376;-70
2021/06/21 01:02:02;;;;;;;9.88;8.65;;;28.30;46.50;;;;;;5112849;28;20023;-70
2021/06/21 01:04:28;;;;;;;11.93;8.05;;;28.20;46.60;;;;;;5100141;28;20039;-70
2021/06/21 01:06:54;;;;;;;9.30;8.35;;;28.20;46.80;;;;;;5093764;28;20008;-70
2021/06/21 01:09:20;;;;;;;10.93;9.27;;;28.20;47.00;;;;;;5093685;28;20024;-70
2021/06/21 01:11:54;;;;;;;24.58;9.93;;;28.10;47.10;;;;;;5092640;28;20027;-70
2021/06/21 01:14:37;;;;;;;9.05;8.13;;;28.10;47.30;;;;;;5092605;28;20028;-71
2021/06/21 01:17:23;;;;;;;9.52;8.30;;;28.10;47.40;;;;;;5093578;28;20474;-70
2021/06/21 01:19:55;;;;;;;13.48;8.93;;;28.10;48.00;;;;;;5093529;28;20081;-70
2021/06/21 01:22:48;;;;;;;11.23;9.05;;;28.00;48.10;;;;;;5091999;28;20056;-70
2021/06/21 01:25:24;;;;;;;10.80;8.90;;;28.00;47.40;;;;;;5093460;28;20091;-70
2021/06/21 01:27:52;;;;;;;9.68;8.77;;;28.00;47.90;;;;;;5093380;28;20021;-70
2021/06/21 01:30:21;;;;;;;10.38;8.23;;;27.90;47.70;;;;;;5093329;28;20024;-71
2021/06/21 01:32:58;;;;;;;16.05;10.60;;;27.90;47.80;;;;;;5093255;28;20081;-69
2021/06/21 01:35:47;;;;;;;12.43;10.43;;;27.90;48.60;;;;;;5108976;28;20036;-71
2021/06/21 01:38:19;;;;;;;10.57;8.70;;;27.90;48.80;;;;;;5110804;28;20016;-70
2021/06/21 01:40:52;;;;;;;11.05;9.07;;;27.90;48.30;;;;;;5113530;28;20035;-70
2021/06/21 01:43:22;;;;;;;11.38;9.82;;;27.90;48.30;;;;;;5113464;28;20032;-69
2021/06/21 01:45:49;;;;;;;12.85;9.65;;;28.00;48.60;;;;;;5113390;28;20020;-71
2021/06/21 01:48:21;;;;;;;11.95;10.13;;;28.00;48.90;;;;;;5113356;28;20047;-70
2021/06/21 01:50:48;;;;;;;12.23;10.43;;;28.00;48.80;;;;;;5113384;28;20027;-70
2021/06/21 01:53:18;;;;;;;15.52;9.82;;;28.10;49.10;;;;;;5113338;28;20042;-69
2021/06/21 01:55:55;;;;;;;13.82;10.07;;;28.10;49.10;;;;;;5113299;28;20026;-71
2021/06/21 01:58:21;;;;;;;13.15;9.90;;;28.10;48.90;;;;;;5113330;28;20016;-70
2021/06/21 02:00:47;;;;;;;11.43;9.45;;;28.20;48.90;;;;;;5113148;28;20039;-70
2021/06/21 02:03:14;;;;;;;12.90;10.73;;;28.20;48.70;;;;;;5109142;28;20051;-70
2021/06/21 02:05:41;;;;;;;12.30;10.13;;;28.30;48.60;;;;;;5092793;28;20042;-70
2021/06/21 02:08:10;;;;;;;12.43;9.65;;;28.30;48.70;;;;;;5091513;28;20020;-70
2021/06/21 02:10:38;;;;;;;16.70;11.45;;;28.30;48.50;;;;;;5092746;28;20024;-70
2021/06/21 02:13:06;;;;;;;15.15;9.65;;;28.30;48.60;;;;;;5092748;28;20147;-71
2021/06/21 02:15:32;;;;;;;11.25;9.60;;;28.40;48.60;;;;;;5092806;28;20020;-71
2021/06/21 02:17:59;;;;;;;11.20;9.43;;;28.30;48.30;;;;;;5092697;28;20047;-71
2021/06/21 02:20:25;;;;;;;17.65;9.98;;;28.30;48.30;;;;;;5092644;28;20058;-70
2021/06/21 02:22:51;;;;;;;13.23;10.63;;;28.30;48.70;;;;;;5095144;28;20024;-71
2021/06/21 02:25:17;;;;;;;14.35;11.43;;;28.20;48.90;;;;;;5095509;28;20069;-70
2021/06/21 02:27:44;;;;;;;13.88;11.98;;;28.10;49.30;;;;;;5096789;28;20073;-70
2021/06/21 02:30:15;;;;;;;14.35;12.35;;;28.10;49.90;;;;;;5096703;28;20024;-71
2021/06/21 02:32:44;;;;;;;15.25;11.45;;;28.00;50.20;;;;;;5095766;28;20031;-71
2021/06/21 02:35:11;;;;;;;12.68;11.38;;;27.90;50.20;;;;;;5099129;28;20024;-70
2021/06/21 02:37:38;;;;;;;17.35;11.93;;;27.80;50.40;;;;;;5115852;28;20042;-70
2021/06/21 02:40:09;;;;;;;12.80;10.55;;;27.80;50.60;;;;;;5117018;28;20392;-70
2021/06/21 02:42:35;;;;;;;13.00;10.40;;;27.80;50.70;;;;;;5116998;28;20024;-70
2021/06/21 02:45:00;;;;;;;13.32;9.95;;;27.70;50.50;;;;;;5115685;28;20019;-70
2021/06/21 02:47:26;;;;;;;13.38;10.18;;;27.60;50.20;;;;;;5116816;28;20468;-70
2021/06/21 02:49:52;;;;;;;10.55;9.55;;;27.60;50.80;;;;;;5115606;28;20397;-70
2021/06/21 02:52:44;;;;;;;12.75;11.30;;;27.50;50.10;;;;;;5115271;28;20048;-70
2021/06/21 02:55:39;;;;;;;11.93;10.68;;;27.50;50.60;;;;;;5108346;28;20064;-71
2021/06/21 02:58:09;;;;;;;13.48;11.07;;;27.50;50.90;;;;;;5116678;28;20491;-69
2021/06/21 03:00:39;;;;;;;13.43;10.77;;;27.40;51.30;;;;;;5116634;28;20032;-71
2021/06/21 03:03:08;;;;;;;20.80;12.40;;;27.40;51.70;;;;;;5112592;28;20028;-71
2021/06/21 03:05:36;;;;;;;16.52;12.05;;;27.40;52.50;;;;;;5096048;28;20031;-70
2021/06/21 03:08:05;;;;;;;15.10;12.05;;;27.30;51.90;;;;;;5094714;28;20024;-69
2021/06/21 03:10:32;;;;;;;23.70;12.70;;;27.30;52.00;;;;;;5095954;28;20065;-70
2021/06/21 03:12:59;;;;;;;15.85;12.00;;;27.30;52.30;;;;;;5094461;28;20056;-70
2021/06/21 03:15:27;;;;;;;17.42;13.60;;;27.20;52.00;;;;;;5096078;28;20038;-70
2021/06/21 03:17:54;;;;;;;15.38;12.43;;;27.20;52.80;;;;;;5094575;28;20996;-71
2021/06/21 03:20:22;;;;;;;17.35;12.98;;;27.20;52.60;;;;;;5095687;28;20028;-70
2021/06/21 03:22:53;;;;;;;16.20;12.38;;;27.10;52.70;;;;;;5095434;28;20473;-70
2021/06/21 03:25:31;;;;;;;24.25;14.85;;;27.10;52.70;;;;;;5095560;28;20469;-70
2021/06/21 03:28:05;;;;;;;20.02;13.10;;;27.10;53.00;;;;;;5095488;28;20027;-70
2021/06/21 03:30:32;;;;;;;14.52;11.10;;;27.00;53.10;;;;;;5095393;28;20097;-71
2021/06/21 03:32:57;;;;;;;15.93;11.80;;;27.10;53.00;;;;;;5094925;28;20024;-71
2021/06/21 03:35:23;;;;;;;15.60;12.35;;;27.00;52.80;;;;;;5114482;28;20038;-70
2021/06/21 03:37:49;;;;;;;18.80;12.27;;;27.00;52.90;;;;;;5114281;28;20160;-70
2021/06/21 03:40:15;;;;;;;19.65;13.55;;;27.00;52.90;;;;;;5115745;28;20027;-70
2021/06/21 03:42:42;;;;;;;15.63;12.32;;;27.00;53.00;;;;;;5114226;28;20028;-71
2021/06/21 03:45:10;;;;;;;14.77;12.18;;;27.00;53.10;;;;;;5114395;28;20140;-70
2021/06/21 03:47:37;;;;;;;17.52;11.00;;;27.00;53.00;;;;;;5115681;28;20019;-71
2021/06/21 03:50:05;;;;;;;12.73;10.85;;;27.00;52.90;;;;;;5114371;28;20023;-70
2021/06/21 03:52:30;;;;;;;15.75;11.73;;;27.00;52.80;;;;;;5115277;28;20050;-69
2021/06/21 03:55:09;;;;;;;18.45;11.60;;;27.00;52.80;;;;;;5114141;28;20023;-70
2021/06/21 03:57:43;;;;;;;15.40;11.55;;;27.00;52.90;;;;;;5115396;28;20441;-70
2021/06/21 04:00:22;;;;;;;15.98;10.88;;;27.10;52.90;;;;;;5115346;28;20546;-70
2021/06/21 04:02:48;;;;;;;13.57;10.65;;;27.10;52.60;;;;;;5114766;28;20055;-71
2021/06/21 04:05:14;;;;;;;16.95;11.35;;;27.10;52.90;;;;;;5094951;28;20105;-70
2021/06/21 04:07:41;;;;;;;18.23;11.27;;;27.10;52.90;;;;;;5094919;28;20016;-70
2021/06/21 04:10:10;;;;;;;14.55;10.88;;;27.10;52.80;;;;;;5094736;28;20020;-71
2021/06/21 04:12:37;;;;;;;13.48;9.68;;;27.10;52.70;;;;;;5094591;28;20024;-69
2021/06/21 04:15:08;;;;;;;19.77;10.55;;;27.10;52.60;;;;;;5093462;28;20024;-70
2021/06/21 04:17:35;;;;;;;17.13;10.70;;;27.10;52.60;;;;;;5094565;28;20473;-70
2021/06/21 04:20:09;;;;;;;17.13;10.35;;;27.00;52.50;;;;;;5094559;28;20024;-70
2021/06/21 04:22:35;;;;;;;16.27;10.20;;;27.10;52.50;;;;;;5094421;28;20032;-70
2021/06/21 04:25:01;;;;;;;18.50;10.38;;;27.10;52.50;;;;;;5094494;28;20031;-70
2021/06/21 04:27:27;;;;;;;19.98;10.00;;;27.10;52.50;;;;;;5094408;28;20020;-71
2021/06/21 04:29:52;;;;;;;20.35;10.20;;;27.10;52.50;;;;;;5100566;28;20086;-70
2021/06/21 04:32:18;;;;;;;16.08;10.88;;;27.10;52.40;;;;;;5114533;28;20502;-70
2021/06/21 04:34:44;;;;;;;23.48;11.35;;;27.10;52.50;;;;;;5114669;28;20024;-70
2021/06/21 04:37:10;;;;;;;26.73;12.48;;;27.20;52.50;;;;;;5114700;28;20056;-70
2021/06/21 04:39:35;;;;;;;38.95;13.25;;;27.20;52.60;;;;;;5113280;28;20561;-69
2021/06/21 04:42:01;;;;;;;20.02;10.98;;;27.20;52.50;;;;;;5114513;28;20030;-70
2021/06/21 04:44:27;;;;;;;25.45;11.68;;;27.20;52.20;;;;;;5114237;28;20472;-70
2021/06/21 04:46:53;;;;;;;30.33;13.15;;;27.30;52.20;;;;;;5113222;28;20020;-70
2021/06/21 04:49:19;;;;;;;26.48;10.65;;;27.30;52.10;;;;;;5113091;28;20020;-70
2021/06/21 04:51:45;;;;;;;23.77;11.05;;;27.30;52.00;;;;;;5114165;28;20043;-71
2021/06/21 04:54:13;;;;;;;26.00;10.77;;;27.30;51.90;;;;;;5114274;28;20019;-70
2021/06/21 04:56:39;;;;;;;19.88;10.18;;;27.30;51.90;;;;;;5114352;28;20513;-70
2021/06/21 04:59:06;;;;;;;32.75;9.05;;;27.30;51.70;;;;;;5112244;28;20031;-71
2021/06/21 05:01:32;;;;;;;23.10;9.32;;;27.40;51.70;;;;;;5093797;28;20024;-70
2021/06/21 05:04:04;;;;;;;17.08;7.60;;;27.40;51.50;;;;;;5092435;28;20059;-70
2021/06/21 05:06:31;;;;;;;18.23;7.90;;;27.40;51.40;;;;;;5093618;28;20104;-69
2021/06/21 05:08:57;;;;;;;17.02;7.97;;;27.40;51.20;;;;;;5093731;28;20069;-70
2021/06/21 05:11:23;;;;;;;24.25;8.55;;;27.40;51.20;;;;;;5093522;28;20024;-71
2021/06/21 05:13:48;;;;;;;18.20;8.50;;;27.50;51.10;;;;;;5093600;28;20472;-70
2021/06/21 05:16:16;;;;;;;23.77;7.55;;;27.50;51.00;;;;;;5093360;28;20036;-70
2021/06/21 05:18:42;;;;;;;21.75;8.18;;;27.50;50.90;;;;;;5093503;28;20024;-71
2021/06/21 05:21:07;;;;;;;20.92;6.97;;;27.50;50.80;;;;;;5093342;28;20032;-71
2021/06/21 05:23:33;;;;;;;19.17;7.93;;;27.50;50.60;;;;;;5093211;28;20020;-71
2021/06/21 05:25:59;;;;;;;22.58;8.60;;;27.50;50.60;;;;;;5092955;28;20427;-70
2021/06/21 05:28:25;;;;;;;23.05;8.43;;;27.50;50.70;;;;;;5093071;28;20031;-70
2021/06/21 05:30:51;;;;;;;19.70;7.50;;;27.50;50.80;;;;;;5096090;28;20080;-70
2021/06/21 05:33:17;;;;;;;19.55;8.02;;;27.50;50.80;;;;;;5092896;28;20050;-70
2021/06/21 05:35:42;;;;;;;28.45;8.50;;;27.50;51.00;;;;;;5092672;28;20107;-70
2021/06/21 05:38:10;;;;;;;22.77;8.55;;;27.50;51.00;;;;;;5093121;28;20032;-70
2021/06/21 05:40:35;;;;;;;20.35;7.47;;;27.50;51.10;;;;;;5093548;28;20054;-71
2021/06/21 05:43:01;;;;;;;21.77;8.77;;;27.50;51.00;;;;;;5092568;28;20062;-71
2021/06/21 05:45:27;;;;;;;22.30;7.80;;;27.50;51.00;;;;;;5092724;28;20043;-72
2021/06/21 05:47:53;;;;;;;18.67;8.48;;;27.50;50.90;;;;;;5091552;28;20016;-70
2021/06/21 05:50:19;;;;;;;22.13;7.80;;;27.50;50.90;;;;;;5092801;28;20358;-70
2021/06/21 05:52:51;;;;;;;19.90;8.25;;;27.50;50.90;;;;;;5092361;28;20127;-70
2021/06/21 05:55:23;;;;;;;16.35;7.88;;;27.60;50.90;;;;;;5092823;28;20484;-71
2021/06/21 05:57:49;;;;;;;23.95;7.53;;;27.60;51.00;;;;;;5091977;28;20484;-70
2021/06/21 06:00:16;;;;;;;23.15;7.72;;;27.60;50.80;;;;;;5092994;28;20034;-70
2021/06/21 06:02:42;;;;;;;28.73;8.07;;;27.60;50.80;;;;;;5091318;28;20030;-70
2021/06/21 06:05:08;;;;;;;16.10;7.60;;;27.60;50.70;;;;;;5092555;28;20095;-70
2021/06/21 06:07:34;;;;;;;18.77;7.45;;;27.60;50.60;;;;;;5092679;28;20485;-70
2021/06/21 06:10:00;;;;;;;18.17;7.57;;;27.70;50.60;;;;;;5092739;28;20020;-71
2021/06/21 06:12:26;;;;;;;18.48;6.38;;;27.80;50.50;;;;;;5092516;28;20077;-71
2021/06/21 06:14:52;;;;;;;15.98;7.50;;;27.80;50.20;;;;;;5092279;28;20095;-71
2021/06/21 06:17:18;;;;;;;22.45;7.00;;;27.80;49.40;;;;;;5092548;28;20107;-70
2021/06/21 06:19:44;;;;;;;13.23;6.32;;;27.80;49.50;;;;;;5092570;28;20559;-70
2021/06/21 06:22:13;;;;;;;28.10;7.32;;;27.90;49.80;;;;;;5092491;28;20366;-70
2021/06/21 06:24:39;;;;;;;20.25;6.50;;;27.90;49.70;;;;;;5092385;28;20050;-70
2021/06/21 06:27:05;;;;;;;16.88;6.50;;;28.00;49.70;;;;;;5091353;28;20028;-70
2021/06/21 06:29:33;;;;;;;15.38;5.35;;;28.10;49.50;;;;;;5101581;28;20505;-70
2021/06/21 06:32:00;;;;;;;20.20;6.88;;;28.20;49.40;;;;;;5111208;28;20105;-70
2021/06/21 06:34:26;;;;;;;21.98;7.80;;;28.20;49.30;;;;;;5096756;28;20137;-71
2021/06/21 06:36:52;;;;;;;18.58;5.95;;;28.30;49.10;;;;;;5092440;28;20393;-71
2021/06/21 06:39:19;;;;;;;15.00;5.93;;;28.40;49.00;;;;;;5092589;28;20465;-71
2021/06/21 06:41:45;;;;;;;15.25;5.68;;;28.40;48.50;;;;;;5092340;28;20381;-68
2021/06/21 06:44:11;;;;;;;14.38;5.97;;;28.50;48.40;;;;;;5092263;28;20117;-68
2021/06/21 06:46:37;;;;;;;21.00;5.93;;;28.50;48.40;;;;;;5092558;28;20494;-69
2021/06/21 06:49:03;;;;;;;11.13;5.32;;;28.60;48.40;;;;;;5091018;28;20027;-68
2021/06/21 06:51:35;;;;;;;13.27;5.28;;;28.60;48.00;;;;;;5090576;28;20136;-68
2021/06/21 06:54:12;;;;;;;15.70;6.22;;;28.70;47.90;;;;;;5092395;28;20026;-68
2021/06/21 06:59:22;;;;;;;21.50;5.72;;;28.70;47.70;;;;;;5092730;28;20031;-69
2021/06/21 07:01:48;;;;;;;15.20;5.55;;;28.80;47.40;;;;;;5092156;28;20020;-68
2021/06/21 07:04:14;;;;;;;19.73;5.85;;;28.80;47.20;;;;;;5092233;28;20129;-68
2021/06/21 07:06:40;;;;;;;15.65;4.47;;;28.90;46.90;;;;;;5094550;28;20607;-68
2021/06/21 07:09:06;;;;;;;11.95;3.85;;;28.80;46.90;;;;;;5104141;28;20064;-69
2021/06/21 07:11:36;;;;;;;16.70;5.28;;;28.90;46.90;;;;;;5112609;28;20031;-69
2021/06/21 07:14:03;;;;;;;18.42;5.03;;;28.90;46.70;;;;;;5115922;28;20040;-68
2021/06/21 07:16:28;;;;;;;15.48;5.35;;;28.90;47.40;;;;;;5116215;28;20027;-68
2021/06/21 07:18:54;;;;;;;12.98;4.35;;;28.90;46.50;;;;;;5103140;28;20081;-68
2021/06/21 07:21:20;;;;;;;22.77;4.97;;;28.90;46.60;;;;;;5094148;28;20115;-69
2021/06/21 07:23:46;;;;;;;21.52;4.90;;;29.00;46.40;;;;;;5095756;28;20431;-68
2021/06/21 07:26:12;;;;;;;16.85;5.28;;;28.90;46.40;;;;;;5095690;28;20424;-69
2021/06/21 07:28:38;;;;;;;11.32;4.40;;;29.00;46.40;;;;;;5101837;28;20036;-68
2021/06/21 07:31:04;;;;;;;17.10;5.00;;;28.90;46.60;;;;;;5096285;28;20058;-68
2021/06/21 07:33:31;;;;;;;19.25;4.70;;;29.00;46.40;;;;;;5095539;28;20040;-69
2021/06/21 07:36:00;;;;;;;12.60;4.53;;;29.10;46.20;;;;;;5105911;28;20015;-69
2021/06/21 07:38:25;;;;;;;11.07;4.38;;;29.10;45.90;;;;;;5094287;28;20067;-68
2021/06/21 07:40:51;;;;;;;11.35;3.97;;;29.10;46.00;;;;;;5098858;28;20493;-69
2021/06/21 07:43:17;;;;;;;19.17;5.13;;;29.20;46.00;;;;;;5113587;28;20027;-69
2021/06/21 07:45:45;;;;;;;12.65;4.22;;;29.20;45.80;;;;;;5109951;28;20024;-68
2021/06/21 07:48:11;;;;;;;15.65;4.35;;;29.30;45.80;;;;;;5095227;28;20012;-68
2021/06/21 07:50:37;;;;;;;17.33;4.35;;;29.40;45.50;;;;;;5096605;28;20102;-69
2021/06/21 07:53:03;;;;;;;13.23;4.72;;;29.40;45.20;;;;;;5094869;28;20561;-68
2021/06/21 07:55:29;;;;;;;14.75;4.18;;;29.50;45.30;;;;;;5098494;28;20023;-68
2021/06/21 07:57:56;;;;;;;10.07;4.22;;;29.50;45.40;;;;;;5102543;28;20030;-69
2021/06/21 08:00:24;;;;;;;12.45;4.95;;;29.60;45.40;;;;;;5101958;27;20536;-69
2021/06/21 08:02:54;;;;;;;11.80;4.28;;;29.70;45.30;;;;;;5105517;28;20070;-70
2021/06/21 08:05:21;;;;;;;15.50;4.70;;;29.70;45.30;;;;;;5113920;28;20015;-69
2021/06/21 08:07:47;;;;;;;17.30;4.85;;;29.80;45.30;;;;;;5115230;28;20034;-69
2021/06/21 08:10:14;;;;;;;15.48;5.25;;;29.90;45.00;;;;;;5112310;28;20016;-71
2021/06/21 08:12:42;;;;;;;17.70;5.40;;;30.00;44.90;;;;;;5094762;27;20428;-67
2021/06/21 08:15:10;;;;;;;10.60;4.15;;;30.00;44.70;;;;;;5093609;28;20798;-67
2021/06/21 08:17:36;;;;;;;13.20;4.60;;;30.10;44.70;;;;;;5104574;27;20020;-69
2021/06/21 08:20:05;;;;;;;18.70;5.68;;;30.20;44.70;;;;;;5099787;28;20089;-64
2021/06/21 08:22:30;;;;;;;15.20;5.90;;;30.20;44.40;;;;;;5106427;28;20023;-73
2021/06/21 08:24:56;;;;;;;19.48;5.63;;;30.20;44.30;;;;;;5093922;28;20089;-71
2021/06/21 08:27:22;;;;;;;11.50;5.13;;;30.20;44.30;;;;;;5098532;28;20019;-69
2021/06/21 08:29:48;;;;;;;17.73;6.18;;;30.20;44.40;;;;;;5093341;28;20040;-68
2021/06/21 08:32:14;;;;;;;8.70;4.50;;;30.20;44.10;;;;;;5093478;28;20016;-69
2021/06/21 08:34:43;;;;;;;12.10;5.53;;;30.20;44.40;;;;;;5091521;28;20401;-68
2021/06/21 08:37:09;;;;;;;15.27;6.80;;;30.30;44.40;;;;;;5099726;28;20065;-69
2021/06/21 08:39:37;;;;;;;19.95;7.25;;;30.30;44.20;;;;;;5094629;28;20031;-64
2021/06/21 08:42:05;;;;;;;17.20;5.50;;;30.30;44.10;;;;;;5102810;28;20024;-63
2021/06/21 08:44:33;;;;;;;11.55;5.28;;;30.40;44.30;;;;;;5111733;28;20568;-67
2021/06/21 08:47:00;;;;;;;15.10;6.30;;;30.40;44.70;;;;;;5093198;28;20088;-72
2021/06/21 08:49:35;;;;;;;14.70;5.18;;;30.50;44.00;;;;;;5093402;28;20027;-76
2021/06/21 08:52:06;;;;;;;13.43;5.70;;;30.50;44.00;;;;;;5111491;28;20085;-72
2021/06/21 08:54:37;;;;;;;13.80;5.10;;;30.60;44.10;;;;;;5112652;28;20028;-66
2021/06/21 08:57:09;;;;;;;12.38;5.18;;;30.60;43.80;;;;;;5111155;27;20114;-68
2021/06/21 08:59:42;;;;;;;15.40;4.35;;;30.60;43.80;;;;;;5110294;28;20103;-69
2021/06/21 09:02:16;;;;;;;11.88;4.38;;;30.70;43.70;;;;;;5097543;28;20034;-76
2021/06/21 09:04:47;;;;;;;15.82;5.50;;;30.70;43.80;;;;;;5112225;28;20015;-67
2021/06/21 09:07:25;;;;;;;8.80;4.25;;;30.80;43.70;;;;;;5110698;28;20389;-67
2021/06/21 09:10:04;;;;;;;13.80;4.82;;;30.80;43.60;;;;;;5121253;27;20059;-72
2021/06/21 09:12:37;;;;;;;12.88;4.35;;;30.90;43.20;;;;;;5092739;28;20085;-68
2021/06/21 09:15:13;;;;;;;17.90;6.60;;;31.00;43.50;;;;;;5091476;28;20039;-70
2021/06/21 09:17:46;;;;;;;14.77;4.90;;;31.00;43.10;;;;;;5091343;28;20386;-69
2021/06/21 09:20:20;;;;;;;18.00;5.47;;;31.00;43.20;;;;;;5090991;28;20028;-69
2021/06/21 09:23:01;;;;;;;15.07;5.35;;;31.10;43.10;;;;;;5093372;28;20389;-72
2021/06/21 09:25:34;;;;;;;16.98;5.10;;;31.10;42.80;;;;;;5093166;28;20027;-67
2021/06/21 09:28:09;;;;;;;21.45;6.93;;;31.10;42.90;;;;;;5111161;28;20023;-68
2021/06/21 09:31:01;;;;;;;8.52;4.15;;;31.10;42.30;;;;;;5110161;28;20027;-68
2021/06/21 09:33:33;;;;;;;16.60;4.45;;;31.20;42.60;;;;;;5111702;28;20035;-68
2021/06/21 09:36:08;;;;;;;18.42;5.35;;;31.20;42.70;;;;;;5106470;28;20024;-68
2021/06/21 09:38:35;;;;;;;20.50;10.10;;;31.20;42.70;;;;;;5098076;28;20020;-68
2021/06/21 09:41:02;;;;;;;9.75;5.88;;;31.30;42.40;;;;;;5105655;28;20047;-67
2021/06/21 09:43:37;;;;;;;11.38;5.20;;;31.30;42.30;;;;;;5110910;28;20028;-70
2021/06/21 09:46:12;;;;;;;14.55;4.63;;;31.40;42.20;;;;;;5101251;28;20034;-70
2021/06/21 09:48:49;;;;;;;17.17;6.10;;;31.50;42.20;;;;;;5112548;28;20481;-71
2021/06/21 09:51:38;;;;;;;14.60;7.25;;;31.50;41.90;;;;;;5091734;28;20060;-68
2021/06/21 09:54:15;;;;;;;20.40;5.80;;;31.60;42.20;;;;;;5091018;28;20028;-71
2021/06/21 09:56:56;;;;;;;13.23;5.25;;;31.60;41.60;;;;;;5118388;27;20031;-69
2021/06/21 09:59:35;;;;;;;11.52;4.35;;;31.70;41.90;;;;;;5092821;28;20070;-68
2021/06/21 10:02:16;;;;;;;9.65;3.80;;;31.70;41.70;;;;;;5092334;28;20024;-69
2021/06/21 10:04:45;;;;;;;13.43;5.07;;;31.70;41.60;;;;;;5093015;28;20020;-69
2021/06/21 10:07:32;;;;;;;11.80;4.53;;;31.80;41.40;;;;;;5091402;28;20056;-69
2021/06/21 10:10:05;;;;;;;14.18;4.60;;;31.80;41.40;;;;;;5104599;28;20024;-73
2021/06/21 10:12:31;;;;;;;13.40;4.50;;;31.80;41.10;;;;;;5103118;28;20024;-72
2021/06/21 10:14:58;;;;;;;12.07;3.65;;;31.80;40.60;;;;;;5093047;28;20031;-69
2021/06/21 10:17:24;;;;;;;13.93;4.55;;;31.90;40.90;;;;;;5104949;28;20481;-71
2021/06/21 10:19:50;;;;;;;10.00;4.10;;;31.90;40.60;;;;;;5092789;28;20028;-69
2021/06/21 10:22:19;;;;;;;9.18;3.30;;;31.90;40.80;;;;;;5091820;28;20064;-75
2021/06/21 10:24:48;;;;;;;7.20;3.65;;;32.00;40.60;;;;;;5106404;28;20051;-72
2021/06/21 10:27:16;;;;;;;8.45;3.67;;;32.10;40.70;;;;;;5098314;28;20453;-73
2021/06/21 10:29:43;;;;;;;9.70;3.70;;;32.10;40.40;;;;;;5111633;28;20077;-72
2021/06/21 10:32:09;;;;;;;8.18;3.92;;;32.20;40.20;;;;;;5113067;28;20101;-72
2021/06/21 10:34:36;;;;;;;7.90;3.55;;;32.20;40.40;;;;;;5113149;28;20027;-72
2021/06/21 10:37:02;;;;;;;9.60;3.75;;;32.30;40.30;;;;;;5113109;28;20020;-72
2021/06/21 10:39:33;;;;;;;10.55;4.07;;;32.30;39.60;;;;;;5113161;28;20028;-72
2021/06/21 10:42:05;;;;;;;6.68;3.53;;;32.40;40.00;;;;;;5111786;28;20385;-72
2021/06/21 10:44:54;;;;;;;9.77;3.17;;;32.50;40.00;;;;;;5111318;28;20021;-72
2021/06/21 10:47:26;;;;;;;8.95;3.05;;;32.50;39.50;;;;;;5096774;28;20103;-72
2021/06/21 10:49:58;;;;;;;9.27;3.20;;;32.60;39.60;;;;;;5095219;28;20020;-72
2021/06/21 10:52:41;;;;;;;5.05;2.75;;;32.70;39.40;;;;;;5096268;28;20052;-73
2021/06/21 10:58:09;;;;;;;7.20;2.67;;;32.80;39.20;;;;;;5096894;28;20093;-73
2021/06/21 11:00:45;;;;;;;9.27;3.40;;;32.80;38.40;;;;;;5096653;28;20024;-72
2021/06/21 11:03:23;;;;;;;8.88;3.70;;;32.90;37.70;;;;;;5096359;28;20024;-73
2021/06/21 11:05:51;;;;;;;10.52;4.22;;;32.90;37.80;;;;;;5096362;28;20016;-72
2021/06/21 11:08:19;;;;;;;12.75;3.40;;;32.90;37.20;;;;;;5096427;28;20017;-72
2021/06/21 11:10:47;;;;;;;10.63;3.38;;;32.90;37.20;;;;;;5096371;28;20046;-72
2021/06/21 11:13:34;;;;;;;11.43;3.75;;;33.00;37.50;;;;;;5095047;28;20046;-73
2021/06/21 11:16:16;;;;;;;16.10;3.70;;;33.00;37.20;;;;;;5095180;28;20051;-72
2021/06/21 11:18:44;;;;;;;10.85;3.17;;;33.10;37.30;;;;;;5094790;28;20059;-72
2021/06/21 11:21:14;;;;;;;11.27;3.75;;;33.10;37.10;;;;;;5096111;28;20031;-72
2021/06/21 11:23:43;;;;;;;12.65;3.22;;;33.20;36.70;;;;;;5107861;28;20091;-72
2021/06/21 11:26:09;;;;;;;10.43;3.25;;;33.30;36.50;;;;;;5111299;28;20028;-73
2021/06/21 11:28:38;;;;;;;10.15;2.90;;;33.30;36.20;;;;;;5100687;28;20043;-72
2021/06/21 11:31:19;;;;;;;4.85;2.42;;;33.40;36.70;;;;;;5102737;28;20024;-72
2021/06/21 11:33:54;;;;;;;11.05;3.10;;;33.50;37.30;;;;;;5101474;28;20486;-72
2021/06/21 11:36:45;;;;;;;6.63;2.58;;;33.60;36.30;;;;;;5116167;28;20024;-72
2021/06/21 11:39:18;;;;;;;11.07;3.08;;;33.60;36.10;;;;;;5115412;28;20051;-72
2021/06/21 11:42:14;;;;;;;8.25;3.25;;;33.70;35.50;;;;;;5116020;28;20027;-73
2021/06/21 11:44:40;;;;;;;13.40;3.03;;;33.70;35.80;;;;;;5105899;28;20055;-72
2021/06/21 11:47:15;;;;;;;12.18;3.35;;;33.70;35.50;;;;;;5104415;28;20512;-73
2021/06/21 11:49:44;;;;;;;10.38;3.78;;;33.80;35.00;;;;;;5115950;28;20526;-72
2021/06/21 11:52:15;;;;;;;12.82;3.28;;;33.80;35.00;;;;;;5115706;28;20044;-72
2021/06/21 11:54:43;;;;;;;14.50;3.47;;;33.90;34.60;;;;;;5114843;28;20024;-72
2021/06/21 11:57:10;;;;;;;6.88;2.80;;;33.90;34.60;;;;;;5092766;28;20172;-72
2021/06/21 11:59:43;;;;;;;6.72;2.92;;;33.90;34.90;;;;;;5113759;28;20024;-72
2021/06/21 12:02:20;;;;;;;13.82;3.67;;;33.90;35.10;;;;;;5095689;28;20028;-73
2021/06/21 12:04:47;;;;;;;7.00;2.78;;;34.00;35.00;;;;;;5110042;28;20080;-72
2021/06/21 12:07:35;;;;;;;8.13;2.55;;;33.90;35.00;;;;;;5095329;28;20042;-72
2021/06/21 12:10:07;;;;;;;12.02;3.13;;;34.00;35.20;;;;;;5095176;28;20018;-73
2021/06/21 12:12:35;;;;;;;12.55;3.80;;;34.10;34.60;;;;;;5110498;28;20480;-73
2021/06/21 12:15:03;;;;;;;8.57;2.95;;;34.10;34.40;;;;;;5106568;27;20389;-72
2021/06/21 12:17:30;;;;;;;8.65;2.80;;;34.20;34.40;;;;;;5095968;28;20381;-73
2021/06/21 12:20:18;;;;;;;11.30;2.90;;;34.20;33.60;;;;;;5093677;28;20028;-72
2021/06/21 12:23:10;;;;;;;14.52;3.75;;;34.30;33.40;;;;;;5097535;28;20028;-72
2021/06/21 12:25:38;;;;;;;12.27;2.97;;;34.30;32.90;;;;;;5115180;28;20511;-72
2021/06/21 12:28:17;;;;;;;29.10;3.00;;;34.40;32.40;;;;;;5103732;28;20028;-72
2021/06/21 12:30:51;;;;;;;13.50;3.20;;;34.40;32.80;;;;;;5093481;28;20024;-72
2021/06/21 12:33:37;;;;;;;11.15;3.67;;;34.50;32.80;;;;;;5093413;28;20090;-72
2021/06/21 12:36:25;;;;;;;14.52;3.22;;;34.60;33.30;;;;;;5108352;28;20034;-72
2021/06/21 12:38:52;;;;;;;17.35;3.70;;;34.70;32.90;;;;;;5115111;28;20019;-72
2021/06/21 12:41:29;;;;;;;11.57;3.20;;;34.80;31.60;;;;;;5113563;28;20161;-72
2021/06/21 12:43:58;;;;;;;13.10;3.22;;;34.90;32.30;;;;;;5114916;28;20043;-72
2021/06/21 12:46:28;;;;;;;12.13;3.85;;;35.00;32.20;;;;;;5095434;28;20020;-72
2021/06/21 12:48:54;;;;;;;14.05;4.03;;;35.00;31.50;;;;;;5094497;28;20016;-72
2021/06/21 12:51:21;;;;;;;13.27;3.22;;;35.10;32.10;;;;;;5094256;28;20039;-72
2021/06/21 12:53:50;;;;;;;13.75;3.85;;;35.10;31.30;;;;;;5094248;28;20054;-72